createdAt,value
2022-08-27T00:01:47.585Z,18.30
2022-08-27T00:03:50.291Z,19.10
2022-08-27T00:05:52.616Z,18.90
2022-08-27T00:07:54.699Z,17.93
2022-08-27T00:09:56.740Z,19.27
2022-08-27T00:11:58.930Z,19.10
2022-08-27T00:14:01.611Z,19.07
2022-08-27T00:16:05.166Z,18.90
2022-08-27T00:18:07.518Z,18.67
2022-08-27T00:20:09.915Z,19.20
2022-08-27T00:22:12.631Z,19.30
2022-08-27T00:24:14.775Z,19.87
2022-08-27T00:26:17.462Z,21.03
2022-08-27T00:28:19.608Z,20.53
2022-08-27T00:30:23.218Z,22.27
2022-08-27T00:32:26.963Z,21.23
2022-08-27T00:34:29.065Z,21.13
2022-08-27T00:36:31.222Z,19.97
2022-08-27T00:38:33.690Z,19.50
2022-08-27T00:40:36.139Z,21.17
2022-08-27T00:42:38.433Z,18.57
2022-08-27T00:44:40.615Z,19.17
2022-08-27T00:46:55.167Z,19.17
2022-08-27T00:49:01.509Z,19.07
2022-08-27T00:51:04.741Z,18.43
2022-08-27T00:53:17.042Z,18.43
2022-08-27T00:55:21.977Z,19.93
2022-08-27T00:57:24.200Z,19.23
2022-08-27T00:59:32.910Z,20.30
2022-08-27T01:01:35.978Z,18.50
2022-08-27T01:03:38.490Z,19.13
2022-08-27T01:05:41.753Z,17.70
2022-08-27T01:07:47.700Z,18.47
2022-08-27T01:09:51.483Z,17.97
2022-08-27T01:11:55.983Z,17.63
2022-08-27T01:14:00.891Z,16.63
2022-08-27T01:16:03.867Z,15.87
2022-08-27T01:18:06.782Z,18.13
2022-08-27T01:20:16.847Z,18.97
2022-08-27T01:22:53.502Z,18.80
2022-08-27T01:24:59.350Z,17.43
2022-08-27T01:27:02.270Z,16.50
2022-08-27T01:29:04.777Z,16.87
2022-08-27T01:31:08.170Z,16.17
2022-08-27T01:33:15.955Z,17.77
2022-08-27T01:35:19.044Z,17.50
2022-08-27T01:37:23.877Z,17.50
2022-08-27T01:39:26.430Z,17.97
2022-08-27T01:41:30.065Z,17.80
2022-08-27T01:43:32.184Z,19.47
2022-08-27T01:45:40.946Z,18.20
2022-08-27T01:47:43.013Z,19.30
2022-08-27T01:49:45.170Z,22.00
2022-08-27T01:51:47.178Z,19.60
2022-08-27T01:53:50.976Z,18.97
2022-08-27T01:55:54.086Z,18.73
2022-08-27T01:57:56.410Z,17.40
2022-08-27T01:59:58.571Z,18.93
2022-08-27T02:02:02.740Z,18.37
2022-08-27T02:04:04.849Z,17.10
2022-08-27T02:06:09.964Z,16.20
2022-08-27T02:08:15.987Z,16.90
2022-08-27T02:10:24.190Z,15.90
2022-08-27T02:12:27.884Z,13.80
2022-08-27T02:14:30.031Z,14.67
2022-08-27T02:16:37.120Z,14.47
2022-08-27T02:18:44.770Z,13.63
2022-08-27T02:20:47.602Z,14.47
2022-08-27T02:22:50.147Z,13.30
2022-08-27T02:24:52.223Z,14.27
2022-08-27T02:26:55.292Z,12.70
2022-08-27T02:28:57.334Z,13.03
2022-08-27T02:30:59.428Z,13.73
2022-08-27T02:33:02.652Z,13.40
2022-08-27T02:35:05.826Z,13.03
2022-08-27T02:37:07.853Z,14.30
2022-08-27T02:39:10.053Z,14.43
2022-08-27T02:41:12.095Z,13.80
2022-08-27T02:43:15.820Z,14.63
2022-08-27T02:45:19.131Z,12.90
2022-08-27T02:47:21.264Z,12.70
2022-08-27T02:49:23.265Z,12.77
2022-08-27T02:51:25.442Z,14.23
2022-08-27T02:53:28.549Z,12.83
2022-08-27T02:55:31.066Z,14.60
2022-08-27T02:57:36.638Z,14.17
2022-08-27T02:59:38.904Z,12.93
2022-08-27T03:01:41.151Z,12.90
2022-08-27T03:03:43.722Z,12.03
2022-08-27T03:05:45.751Z,12.60
2022-08-27T03:07:47.998Z,12.57
2022-08-27T03:09:51.445Z,14.33
2022-08-27T03:11:53.777Z,12.67
2022-08-27T03:13:55.912Z,12.33
2022-08-27T03:15:58.071Z,12.30
2022-08-27T03:18:18.373Z,11.40
2022-08-27T03:20:20.764Z,10.53
2022-08-27T03:22:22.799Z,12.00
2022-08-27T03:24:24.778Z,10.33
2022-08-27T03:26:27.175Z,11.33
2022-08-27T03:28:32.913Z,11.50
2022-08-27T03:30:35.040Z,11.00
2022-08-27T03:32:37.410Z,10.50
2022-08-27T03:34:39.651Z,11.40
2022-08-27T03:36:41.744Z,10.57
2022-08-27T03:38:43.776Z,11.30
2022-08-27T03:40:45.812Z,10.10
2022-08-27T03:42:48.063Z,10.50
2022-08-27T03:44:50.088Z,11.03
2022-08-27T03:46:52.686Z,12.03
2022-08-27T03:48:57.487Z,10.87
2022-08-27T03:51:08.980Z,11.20
2022-08-27T03:53:11.228Z,9.50
2022-08-27T03:55:13.552Z,11.30
2022-08-27T03:57:15.589Z,11.00
2022-08-27T03:59:17.955Z,10.50
2022-08-27T04:01:20.254Z,12.70
2022-08-27T04:03:22.530Z,10.37
2022-08-27T04:05:24.602Z,12.03
2022-08-27T04:07:26.716Z,12.07
2022-08-27T04:09:28.681Z,11.03
2022-08-27T04:11:31.027Z,11.80
2022-08-27T04:13:33.089Z,11.10
2022-08-27T04:15:35.123Z,10.13
2022-08-27T04:17:43.043Z,10.97
2022-08-27T04:19:45.106Z,11.97
2022-08-27T04:21:47.091Z,11.50
2022-08-27T04:23:49.133Z,11.77
2022-08-27T04:25:51.229Z,10.17
2022-08-27T04:27:53.959Z,11.20
2022-08-27T04:29:58.277Z,11.90
2022-08-27T04:32:00.391Z,12.27
2022-08-27T04:34:02.542Z,12.90
2022-08-27T04:36:08.370Z,11.13
2022-08-27T04:38:10.484Z,12.17
2022-08-27T04:40:12.679Z,11.33
2022-08-27T04:42:18.261Z,12.00
2022-08-27T04:44:20.583Z,12.27
2022-08-27T04:46:23.165Z,13.00
2022-08-27T04:48:25.809Z,13.30
2022-08-27T04:50:27.857Z,14.97
2022-08-27T04:52:32.078Z,13.20
2022-08-27T04:54:34.833Z,14.10
2022-08-27T04:56:37.926Z,15.20
2022-08-27T04:58:40.066Z,13.03
2022-08-27T05:00:48.621Z,14.17
2022-08-27T05:02:50.984Z,15.00
2022-08-27T05:04:53.128Z,14.83
2022-08-27T05:06:55.669Z,15.40
2022-08-27T05:08:57.700Z,15.53
2022-08-27T05:11:00.599Z,15.17
2022-08-27T05:13:02.606Z,14.83
2022-08-27T05:15:05.067Z,15.07
2022-08-27T05:17:07.239Z,16.07
2022-08-27T05:19:11.240Z,15.63
2022-08-27T05:21:27.820Z,14.50
2022-08-27T05:23:29.890Z,16.90
2022-08-27T05:25:31.820Z,17.20
2022-08-27T05:27:33.854Z,18.23
2022-08-27T05:29:35.996Z,18.57
2022-08-27T05:31:40.328Z,18.03
2022-08-27T05:33:43.279Z,18.80
2022-08-27T05:35:47.778Z,19.13
2022-08-27T05:37:49.773Z,18.60
2022-08-27T05:39:51.805Z,20.10
2022-08-27T05:41:57.285Z,20.37
2022-08-27T05:44:02.269Z,18.10
2022-08-27T05:46:06.740Z,18.97
2022-08-27T05:48:12.110Z,21.30
2022-08-27T05:50:14.327Z,21.83
2022-08-27T05:52:16.353Z,22.23
2022-08-27T05:54:21.277Z,22.00
2022-08-27T05:56:25.549Z,21.77
2022-08-27T05:58:45.958Z,23.17
2022-08-27T06:01:09.572Z,21.70
2022-08-27T06:03:13.186Z,22.97
2022-08-27T06:05:15.351Z,24.67
2022-08-27T06:07:17.710Z,23.70
2022-08-27T06:09:22.115Z,25.10
2022-08-27T06:11:24.488Z,25.10
2022-08-27T06:13:26.499Z,25.43
2022-08-27T06:15:28.628Z,24.30
2022-08-27T06:17:30.913Z,25.63
2022-08-27T06:19:34.817Z,24.83
2022-08-27T06:21:37.032Z,27.53
2022-08-27T06:23:39.406Z,26.43
2022-08-27T06:25:42.010Z,26.80
2022-08-27T06:27:44.017Z,26.20
2022-08-27T06:29:46.718Z,26.53
2022-08-27T06:31:50.489Z,27.37
2022-08-27T06:33:54.575Z,27.17
2022-08-27T06:36:02.327Z,28.30
2022-08-27T06:38:04.377Z,25.80
2022-08-27T06:40:07.005Z,26.20
2022-08-27T06:42:12.782Z,28.50
2022-08-27T06:44:15.002Z,28.77
2022-08-27T06:46:19.061Z,32.93
2022-08-27T06:48:21.417Z,31.33
2022-08-27T06:50:27.226Z,29.80
2022-08-27T06:52:29.513Z,30.37
2022-08-27T06:54:32.309Z,31.53
2022-08-27T06:56:34.702Z,32.87
2022-08-27T06:58:36.862Z,33.00
2022-08-27T07:00:39.495Z,31.50
2022-08-27T07:02:42.044Z,32.07
2022-08-27T07:04:44.188Z,29.43
2022-08-27T07:06:46.223Z,30.53
2022-08-27T07:08:53.398Z,29.97
2022-08-27T07:10:57.626Z,30.27
2022-08-27T07:13:00.323Z,28.93
2022-08-27T07:15:02.495Z,27.53
2022-08-27T07:17:06.949Z,27.57
2022-08-27T07:19:12.919Z,25.53
2022-08-27T07:21:14.981Z,27.37
2022-08-27T07:23:16.939Z,27.30
2022-08-27T07:25:22.060Z,26.30
2022-08-27T07:27:24.094Z,24.73
2022-08-27T07:29:30.431Z,26.03
2022-08-27T07:31:35.844Z,27.00
2022-08-27T07:33:38.549Z,24.93
2022-08-27T07:35:40.973Z,25.30
2022-08-27T07:37:43.371Z,24.07
2022-08-27T07:39:45.431Z,26.63
2022-08-27T07:42:05.841Z,25.60
2022-08-27T07:44:28.251Z,24.67
2022-08-27T07:46:39.727Z,26.77
2022-08-27T07:48:42.882Z,24.50
2022-08-27T07:50:44.938Z,25.73
2022-08-27T07:52:47.566Z,23.90
2022-08-27T07:54:49.650Z,23.57
2022-08-27T07:56:55.323Z,22.97
2022-08-27T07:58:57.872Z,21.00
2022-08-27T08:00:59.951Z,23.50
2022-08-27T08:03:02.084Z,21.27
2022-08-27T08:05:06.246Z,21.90
2022-08-27T08:07:08.462Z,21.07
2022-08-27T08:09:10.730Z,20.93
2022-08-27T08:11:16.943Z,20.87
2022-08-27T08:13:19.514Z,19.47
2022-08-27T08:15:21.974Z,19.97
2022-08-27T08:17:27.251Z,19.67
2022-08-27T08:19:30.169Z,18.80
2022-08-27T08:21:35.005Z,17.90
2022-08-27T08:23:37.292Z,16.83
2022-08-27T08:25:39.496Z,17.50
2022-08-27T08:27:42.324Z,17.87
2022-08-27T08:29:44.920Z,18.90
2022-08-27T08:31:50.121Z,19.10
2022-08-27T08:33:52.934Z,17.20
2022-08-27T08:35:55.184Z,18.40
2022-08-27T08:37:57.347Z,20.37
2022-08-27T08:39:59.545Z,18.73
2022-08-27T08:42:03.941Z,19.10
2022-08-27T08:44:20.689Z,19.20
2022-08-27T08:46:33.772Z,19.97
2022-08-27T08:48:37.672Z,21.33
2022-08-27T08:50:49.875Z,20.03
2022-08-27T08:53:21.719Z,21.50
2022-08-27T08:55:53.232Z,21.73
2022-08-27T08:58:10.097Z,23.17
2022-08-27T09:00:13.598Z,21.57
2022-08-27T09:02:15.771Z,24.10
2022-08-27T09:04:18.046Z,22.50
2022-08-27T09:06:47.382Z,25.73
2022-08-27T09:08:49.614Z,26.77
2022-08-27T09:11:00.124Z,26.20
2022-08-27T09:13:04.035Z,25.27
2022-08-27T09:15:23.444Z,25.30
2022-08-27T09:17:25.726Z,26.13
2022-08-27T09:19:28.007Z,24.17
2022-08-27T09:21:45.941Z,25.97
2022-08-27T09:24:06.831Z,24.93
2022-08-27T09:26:21.026Z,25.93
2022-08-27T09:28:51.762Z,25.37
2022-08-27T09:30:55.955Z,23.20
2022-08-27T09:33:07.091Z,24.30
2022-08-27T09:35:11.710Z,23.77
2022-08-27T09:37:20.724Z,24.80
2022-08-27T09:39:35.530Z,25.10
2022-08-27T09:41:43.479Z,26.50
2022-08-27T09:43:45.742Z,24.80
2022-08-27T09:45:51.635Z,26.23
2022-08-27T09:48:27.299Z,25.47
2022-08-27T09:50:43.882Z,22.37
2022-08-27T09:52:55.327Z,21.77
2022-08-27T09:54:58.160Z,20.50
2022-08-27T09:57:00.846Z,19.80
2022-08-27T09:59:04.412Z,19.87
2022-08-27T10:01:17.113Z,18.50
2022-08-27T10:03:22.558Z,19.90
2022-08-27T10:05:36.078Z,18.63
2022-08-27T10:07:52.635Z,20.07
2022-08-27T10:10:01.183Z,17.77
2022-08-27T10:12:06.498Z,18.53
2022-08-27T10:14:26.809Z,17.17
2022-08-27T10:16:58.280Z,17.30
2022-08-27T10:19:31.025Z,15.30
2022-08-27T10:22:00.894Z,15.97
2022-08-27T10:24:21.444Z,16.33
2022-08-27T10:26:33.842Z,17.30
2022-08-27T10:28:44.863Z,16.30
2022-08-27T10:31:02.717Z,15.80
2022-08-27T10:33:10.913Z,16.20
2022-08-27T10:35:25.831Z,15.37
2022-08-27T10:37:32.524Z,16.67
2022-08-27T10:39:54.198Z,15.87
2022-08-27T10:42:21.705Z,16.43
2022-08-27T10:44:35.011Z,17.00
2022-08-27T10:46:50.388Z,15.97
2022-08-27T10:49:00.203Z,16.60
2022-08-27T10:51:11.930Z,16.20
2022-08-27T10:53:37.357Z,16.33
2022-08-27T10:55:46.097Z,15.10
2022-08-27T10:58:01.266Z,16.37
2022-08-27T11:00:17.077Z,14.80
2022-08-27T11:02:27.678Z,15.90
2022-08-27T11:04:37.198Z,14.90
2022-08-27T11:06:45.045Z,13.03
2022-08-27T11:08:52.492Z,14.40
2022-08-27T11:11:04.588Z,12.53
2022-08-27T11:13:23.817Z,11.93
2022-08-27T11:15:30.168Z,10.37
2022-08-27T11:17:37.071Z,10.63
2022-08-27T11:20:05.238Z,10.90
2022-08-27T11:22:17.014Z,10.37
2022-08-27T11:24:36.872Z,10.80
2022-08-27T11:26:40.956Z,9.23
2022-08-27T11:28:47.729Z,11.27
2022-08-27T11:31:01.614Z,11.07
2022-08-27T11:33:27.746Z,10.80
2022-08-27T11:35:55.627Z,10.00
2022-08-27T11:38:27.702Z,10.77
2022-08-27T11:40:50.774Z,10.83
2022-08-27T11:42:58.577Z,11.00
2022-08-27T11:45:11.061Z,11.77
2022-08-27T11:47:19.857Z,11.90
2022-08-27T11:49:45.286Z,11.73
2022-08-27T11:51:57.273Z,11.60
2022-08-27T11:54:09.020Z,10.90
2022-08-27T11:56:17.024Z,11.73
2022-08-27T11:58:19.368Z,10.40
2022-08-27T12:00:27.726Z,10.37
2022-08-27T12:02:30.165Z,10.37
2022-08-27T12:04:33.946Z,10.90
2022-08-27T12:06:45.106Z,10.67
2022-08-27T12:08:47.447Z,11.17
2022-08-27T12:11:27.552Z,10.37
2022-08-27T12:13:40.732Z,8.63
2022-08-27T12:16:09.962Z,9.00
2022-08-27T12:18:25.015Z,8.70
2022-08-27T12:20:30.955Z,7.33
2022-08-27T12:22:55.927Z,7.40
2022-08-27T12:24:59.470Z,7.83
2022-08-27T12:27:15.634Z,7.60
2022-08-27T12:29:31.891Z,7.60
2022-08-27T12:31:34.665Z,8.33
2022-08-27T12:33:42.420Z,9.27
2022-08-27T12:35:50.730Z,8.27
2022-08-27T12:37:57.831Z,9.00
2022-08-27T12:40:24.839Z,8.30
2022-08-27T12:42:27.115Z,7.60
2022-08-27T12:44:31.627Z,7.90
2022-08-27T12:46:39.105Z,7.77
2022-08-27T12:48:55.201Z,7.87
2022-08-27T12:51:01.226Z,7.93
2022-08-27T12:53:06.547Z,7.87
2022-08-27T12:55:09.557Z,7.60
2022-08-27T12:57:12.064Z,8.00
2022-08-27T12:59:52.611Z,7.80
2022-08-27T13:01:58.631Z,7.40
2022-08-27T13:04:05.401Z,7.57
2022-08-27T13:06:20.964Z,6.70
2022-08-27T13:08:28.444Z,6.97
2022-08-27T13:10:32.189Z,7.63
2022-08-27T13:12:34.470Z,6.83
2022-08-27T13:14:39.283Z,7.30
2022-08-27T13:16:54.966Z,6.90
2022-08-27T13:18:57.209Z,6.77
2022-08-27T13:21:15.135Z,6.53
2022-08-27T13:23:22.300Z,7.23
2022-08-27T13:25:28.898Z,6.73
2022-08-27T13:27:34.920Z,7.53
2022-08-27T13:29:37.816Z,8.73
2022-08-27T13:31:40.080Z,8.43
2022-08-27T13:33:42.850Z,9.27
2022-08-27T13:35:45.139Z,9.03
2022-08-27T13:37:53.583Z,9.37
2022-08-27T13:39:56.903Z,10.00
2022-08-27T13:42:00.931Z,10.77
2022-08-27T13:44:11.009Z,10.40
2022-08-27T13:46:15.759Z,9.90
2022-08-27T13:48:19.569Z,13.80
2022-08-27T13:50:31.551Z,14.33
2022-08-27T13:52:58.370Z,14.20
2022-08-27T13:55:17.158Z,11.57
2022-08-27T13:57:42.735Z,9.93
2022-08-27T13:59:44.972Z,9.77
2022-08-27T14:02:04.103Z,9.47
2022-08-27T14:04:08.617Z,10.93
2022-08-27T14:06:10.773Z,9.60
2022-08-27T14:08:17.795Z,9.17
2022-08-27T14:10:34.755Z,8.90
2022-08-27T14:12:39.246Z,9.30
2022-08-27T14:14:41.999Z,9.00
2022-08-27T14:16:44.368Z,8.50
2022-08-27T14:19:04.994Z,8.50
2022-08-27T14:21:07.181Z,7.80
2022-08-27T14:23:09.383Z,8.40
2022-08-27T14:25:12.274Z,6.80
2022-08-27T14:27:15.479Z,6.30
2022-08-27T14:29:17.949Z,6.67
2022-08-27T14:31:20.488Z,7.50
2022-08-27T14:33:22.903Z,8.90
2022-08-27T14:35:25.806Z,9.20
2022-08-27T14:37:28.091Z,8.60
2022-08-27T14:39:30.324Z,9.70
2022-08-27T14:41:33.457Z,9.30
2022-08-27T14:43:35.936Z,8.63
2022-08-27T14:45:39.183Z,8.30
2022-08-27T14:47:42.363Z,9.00
2022-08-27T14:49:46.135Z,9.53
2022-08-27T14:51:49.162Z,9.90
2022-08-27T14:53:52.117Z,9.80
2022-08-27T14:55:56.104Z,11.43
2022-08-27T14:57:59.115Z,11.50
2022-08-27T15:00:01.307Z,11.60
2022-08-27T15:02:07.128Z,11.40
2022-08-27T15:04:09.309Z,11.57
2022-08-27T15:06:11.517Z,11.30
2022-08-27T15:08:15.908Z,12.00
2022-08-27T15:10:18.482Z,11.83
2022-08-27T15:12:26.342Z,10.80
2022-08-27T15:14:31.697Z,11.83
2022-08-27T15:16:38.632Z,10.53
2022-08-27T15:18:40.779Z,12.20
2022-08-27T15:20:43.131Z,12.50
2022-08-27T15:22:46.762Z,13.00
2022-08-27T15:24:54.706Z,13.17
2022-08-27T15:27:00.244Z,14.70
2022-08-27T15:29:06.391Z,14.00
2022-08-27T15:31:09.166Z,14.90
2022-08-27T15:33:11.320Z,14.87
2022-08-27T15:35:16.789Z,15.30
2022-08-27T15:37:19.058Z,14.53
2022-08-27T15:39:21.373Z,14.63
2022-08-27T15:41:27.269Z,15.07
2022-08-27T15:43:31.542Z,15.00
2022-08-27T15:45:34.287Z,14.63
2022-08-27T15:47:36.559Z,15.60
2022-08-27T15:49:40.812Z,15.50
2022-08-27T15:51:44.686Z,15.37
2022-08-27T15:53:46.858Z,15.37
2022-08-27T15:55:51.643Z,15.13
2022-08-27T15:57:55.371Z,15.53
2022-08-27T15:59:57.621Z,14.60
2022-08-27T16:02:01.060Z,14.13
2022-08-27T16:04:05.052Z,13.30
2022-08-27T16:06:07.401Z,14.27
2022-08-27T16:08:11.194Z,14.13
2022-08-27T16:10:14.454Z,14.00
2022-08-27T16:12:26.988Z,12.93
2022-08-27T16:14:29.761Z,12.70
2022-08-27T16:16:32.468Z,12.83
2022-08-27T16:18:35.261Z,13.90
2022-08-27T16:20:37.427Z,12.30
2022-08-27T16:22:39.742Z,13.90
2022-08-27T16:24:42.043Z,14.07
2022-08-27T16:26:44.439Z,13.50
2022-08-27T16:28:46.613Z,14.37
2022-08-27T16:30:51.382Z,15.80
2022-08-27T16:32:53.845Z,14.77
2022-08-27T16:34:56.285Z,14.90
2022-08-27T16:36:58.514Z,15.30
2022-08-27T16:39:00.688Z,14.77
2022-08-27T16:41:03.720Z,15.53
2022-08-27T16:43:06.282Z,14.03
2022-08-27T16:45:12.439Z,15.97
2022-08-27T16:47:16.447Z,15.27
2022-08-27T16:49:37.161Z,16.17
2022-08-27T16:51:39.432Z,15.37
2022-08-27T16:53:42.639Z,18.27
2022-08-27T16:55:45.580Z,16.83
2022-08-27T16:57:47.776Z,17.40
2022-08-27T16:59:49.936Z,9.30
2022-08-27T17:01:53.329Z,7.33
2022-08-27T17:04:08.832Z,6.53
2022-08-27T17:06:14.283Z,6.50
2022-08-27T17:08:18.891Z,6.20
2022-08-27T17:10:21.671Z,6.20
2022-08-27T17:12:24.216Z,6.80
2022-08-27T17:14:26.893Z,7.07
2022-08-27T17:16:31.530Z,7.00
2022-08-27T17:18:34.937Z,7.07
2022-08-27T17:20:37.519Z,8.20
2022-08-27T17:22:39.659Z,8.60
2022-08-27T17:24:41.879Z,10.63
2022-08-27T17:26:44.121Z,10.20
2022-08-27T17:28:46.795Z,10.63
2022-08-27T17:30:49.025Z,10.10
2022-08-27T17:32:51.275Z,11.30
2022-08-27T17:34:53.920Z,10.17
2022-08-27T17:36:56.116Z,11.83
2022-08-27T17:38:58.950Z,11.93
2022-08-27T17:41:06.224Z,14.00
2022-08-27T17:43:08.435Z,13.50
2022-08-27T17:45:11.054Z,14.40
2022-08-27T17:47:13.295Z,13.97
2022-08-27T17:49:16.803Z,15.03
2022-08-27T17:51:22.207Z,14.30
2022-08-27T17:53:24.475Z,15.03
2022-08-27T17:55:26.650Z,15.17
2022-08-27T17:57:40.484Z,16.20
2022-08-27T17:59:43.847Z,14.90
2022-08-27T18:01:46.139Z,15.00
2022-08-27T18:03:48.470Z,16.30
2022-08-27T18:05:50.599Z,15.77
2022-08-27T18:07:53.412Z,17.17
2022-08-27T18:09:55.699Z,17.60
2022-08-27T18:11:58.405Z,18.57
2022-08-27T18:14:04.732Z,17.30
2022-08-27T18:16:07.835Z,16.87
2022-08-27T18:18:10.743Z,16.67
2022-08-27T18:20:14.624Z,16.90
2022-08-27T18:22:18.253Z,17.57
2022-08-27T18:24:20.633Z,18.33
2022-08-27T18:26:26.788Z,19.47
2022-08-27T18:28:29.032Z,17.07
2022-08-27T18:30:31.668Z,17.40
2022-08-27T18:32:34.040Z,18.10
2022-08-27T18:34:36.339Z,17.30
2022-08-27T18:36:42.940Z,16.63
2022-08-27T18:38:47.124Z,17.97
2022-08-27T18:40:50.095Z,16.77
2022-08-27T18:42:56.365Z,16.50
2022-08-27T18:45:01.454Z,15.60
2022-08-27T18:47:06.239Z,16.30
2022-08-27T18:49:08.420Z,15.47
2022-08-27T18:51:15.900Z,16.30
2022-08-27T18:53:20.260Z,15.40
2022-08-27T18:55:25.720Z,15.40
2022-08-27T18:57:27.859Z,16.73
2022-08-27T18:59:30.102Z,19.33
2022-08-27T19:01:32.488Z,25.17
2022-08-27T19:03:39.400Z,16.87
2022-08-27T19:05:43.157Z,16.77
2022-08-27T19:07:45.429Z,15.27
2022-08-27T19:09:47.656Z,16.17
2022-08-27T19:11:51.537Z,16.00
2022-08-27T19:13:53.650Z,15.70
2022-08-27T19:15:59.760Z,16.73
2022-08-27T19:18:04.692Z,17.47
2022-08-27T19:20:07.456Z,16.37
2022-08-27T19:22:09.558Z,15.57
2022-08-27T19:24:11.679Z,17.10
2022-08-27T19:26:19.420Z,19.00
2022-08-27T19:28:27.889Z,16.33
2022-08-27T19:30:30.058Z,17.73
2022-08-27T19:32:34.075Z,17.07
2022-08-27T19:34:36.242Z,18.30
2022-08-27T19:36:41.003Z,17.90
2022-08-27T19:38:44.045Z,19.50
2022-08-27T19:40:46.154Z,19.57
2022-08-27T19:42:48.462Z,20.30
2022-08-27T19:44:50.588Z,19.33
2022-08-27T19:46:53.150Z,20.80
2022-08-27T19:48:55.539Z,19.87
2022-08-27T19:50:58.277Z,19.20
2022-08-27T19:53:00.543Z,21.00
2022-08-27T19:55:13.718Z,21.47
2022-08-27T19:57:16.591Z,20.67
2022-08-27T19:59:21.872Z,20.80
2022-08-27T20:01:24.184Z,19.70
2022-08-27T20:03:26.545Z,19.40
2022-08-27T20:05:28.755Z,19.23
2022-08-27T20:07:31.065Z,19.00
2022-08-27T20:09:37.177Z,19.37
2022-08-27T20:11:39.366Z,17.13
2022-08-27T20:13:50.589Z,18.30
2022-08-27T20:15:52.984Z,16.57
2022-08-27T20:17:55.511Z,18.20
2022-08-27T20:19:58.863Z,16.27
2022-08-27T20:22:01.283Z,16.83
2022-08-27T20:24:04.879Z,16.93
2022-08-27T20:26:07.144Z,17.67
2022-08-27T20:28:35.532Z,18.33
2022-08-27T20:30:31.479Z,17.77
2022-08-27T20:32:35.605Z,18.57
2022-08-27T20:34:37.813Z,17.70
2022-08-27T20:36:40.307Z,18.17
2022-08-27T20:38:43.739Z,17.27
2022-08-27T20:40:46.518Z,17.60
2022-08-27T20:42:48.931Z,16.30
2022-08-27T20:44:51.078Z,16.07
2022-08-27T20:46:58.413Z,16.83
2022-08-27T20:49:00.698Z,17.33
2022-08-27T20:51:02.852Z,16.43
2022-08-27T20:53:05.083Z,17.10
2022-08-27T20:55:08.930Z,17.40
2022-08-27T20:57:11.246Z,16.70
2022-08-27T20:59:32.058Z,16.40
2022-08-27T21:01:34.863Z,17.37
2022-08-27T21:03:37.187Z,16.03
2022-08-27T21:05:41.482Z,16.57
2022-08-27T21:07:44.861Z,14.60
2022-08-27T21:09:56.369Z,14.30
2022-08-27T21:11:59.794Z,14.20
2022-08-27T21:14:02.342Z,15.20
2022-08-27T21:16:04.886Z,13.53
2022-08-27T21:18:07.150Z,13.63
2022-08-27T21:20:13.103Z,12.37
2022-08-27T21:22:15.212Z,12.50
2022-08-27T21:24:18.426Z,14.70
2022-08-27T21:26:22.903Z,13.80
2022-08-27T21:28:25.141Z,14.60
2022-08-27T21:30:27.448Z,12.40
2022-08-27T21:32:29.575Z,13.87
2022-08-27T21:34:31.708Z,12.37
2022-08-27T21:36:34.571Z,14.10
2022-08-27T21:38:36.682Z,13.67
2022-08-27T21:40:39.197Z,14.20
2022-08-27T21:42:41.411Z,13.87
2022-08-27T21:44:43.707Z,14.03
2022-08-27T21:46:45.930Z,13.37
2022-08-27T21:48:50.042Z,14.00
2022-08-27T21:51:08.498Z,13.13
2022-08-27T21:53:10.549Z,11.57
2022-08-27T21:55:13.217Z,12.30
2022-08-27T21:57:15.814Z,12.60
2022-08-27T21:59:17.957Z,11.50
2022-08-27T22:01:20.292Z,12.93
2022-08-27T22:03:23.763Z,12.00
2022-08-27T22:05:26.098Z,12.33
2022-08-27T22:07:28.173Z,11.70
2022-08-27T22:09:30.365Z,12.57
2022-08-27T22:11:32.453Z,11.27
2022-08-27T22:13:34.567Z,11.57
2022-08-27T22:15:37.108Z,12.20
2022-08-27T22:17:39.178Z,12.17
2022-08-27T22:19:41.805Z,12.13
2022-08-27T22:21:44.172Z,12.60
2022-08-27T22:23:46.339Z,12.83
2022-08-27T22:25:48.961Z,11.93
2022-08-27T22:27:51.149Z,12.97
2022-08-27T22:29:53.455Z,12.47
2022-08-27T22:31:55.612Z,12.70
2022-08-27T22:33:58.446Z,11.50
2022-08-27T22:36:00.678Z,11.33
2022-08-27T22:38:02.968Z,12.40
2022-08-27T22:40:08.690Z,11.53
2022-08-27T22:42:21.372Z,11.27
2022-08-27T22:44:24.385Z,11.70
2022-08-27T22:46:26.757Z,12.40
2022-08-27T22:48:28.954Z,11.10
2022-08-27T22:50:31.198Z,12.37
2022-08-27T22:52:33.714Z,12.50
2022-08-27T22:54:35.938Z,11.53
2022-08-27T22:56:38.539Z,11.73
2022-08-27T22:58:41.179Z,13.77
2022-08-27T23:00:52.004Z,12.03
2022-08-27T23:02:55.667Z,12.70
2022-08-27T23:04:57.856Z,13.03
2022-08-27T23:07:02.873Z,11.90
2022-08-27T23:09:04.971Z,11.80
2022-08-27T23:11:07.203Z,11.73
2022-08-27T23:13:10.403Z,12.47
2022-08-27T23:15:14.136Z,12.27
2022-08-27T23:17:16.172Z,12.57
2022-08-27T23:19:18.661Z,11.60
2022-08-27T23:21:21.106Z,12.23
2022-08-27T23:23:26.754Z,11.50
2022-08-27T23:25:51.765Z,11.43
2022-08-27T23:27:54.198Z,11.10
2022-08-27T23:29:57.712Z,11.50
2022-08-27T23:32:00.201Z,10.73
2022-08-27T23:34:02.345Z,9.20
2022-08-27T23:36:06.325Z,8.60
2022-08-27T23:38:08.455Z,9.73
2022-08-27T23:40:11.877Z,10.00
2022-08-27T23:42:16.423Z,9.67
2022-08-27T23:44:18.386Z,8.17
2022-08-27T23:46:22.690Z,7.83
2022-08-27T23:48:24.782Z,8.47
2022-08-27T23:50:33.873Z,9.17
2022-08-27T23:52:37.183Z,8.93
2022-08-27T23:54:39.917Z,8.13
2022-08-27T23:56:42.263Z,7.40
2022-08-27T23:58:45.465Z,7.53
